createdAt,value
2023-04-21T00:01:55.350Z,20.75
2023-04-21T00:04:22.505Z,20.85
2023-04-21T00:06:50.667Z,18.35
2023-04-21T00:09:18.837Z,19.63
2023-04-21T00:11:46.112Z,22.83
2023-04-21T00:14:13.054Z,22.02
2023-04-21T00:16:39.978Z,17.35
2023-04-21T00:19:07.575Z,18.77
2023-04-21T00:21:35.355Z,19.98
2023-04-21T00:24:02.388Z,18.58
2023-04-21T00:26:29.264Z,20.00
2023-04-21T00:28:56.206Z,19.15
2023-04-21T00:31:23.314Z,19.02
2023-04-21T00:33:50.323Z,19.90
2023-04-21T00:36:17.103Z,22.42
2023-04-21T00:38:44.018Z,21.77
2023-04-21T00:41:10.868Z,22.10
2023-04-21T00:43:37.701Z,22.13
2023-04-21T00:46:04.729Z,23.27
2023-04-21T00:48:31.565Z,25.90
2023-04-21T00:50:58.359Z,24.20
2023-04-21T00:53:25.249Z,23.13
2023-04-21T00:55:52.222Z,22.42
2023-04-21T00:58:19.141Z,23.27
2023-04-21T01:00:46.006Z,23.33
2023-04-21T01:03:13.258Z,25.10
2023-04-21T01:05:40.688Z,25.17
2023-04-21T01:08:07.817Z,23.25
2023-04-21T01:10:34.674Z,24.95
2023-04-21T01:13:01.484Z,30.45
2023-04-21T01:15:31.162Z,28.85
2023-04-21T01:17:58.420Z,27.92
2023-04-21T01:20:25.673Z,29.13
2023-04-21T01:22:52.534Z,35.35
2023-04-21T01:25:22.524Z,32.58
2023-04-21T01:27:49.334Z,33.25
2023-04-21T01:30:16.131Z,31.02
2023-04-21T01:32:43.042Z,30.67
2023-04-21T01:35:10.268Z,32.17
2023-04-21T01:37:37.168Z,32.97
2023-04-21T01:40:07.362Z,37.63
2023-04-21T01:42:35.843Z,37.33
2023-04-21T01:45:03.202Z,38.60
2023-04-21T01:47:30.103Z,39.30
2023-04-21T01:49:57.307Z,39.75
2023-04-21T01:52:24.326Z,44.65
2023-04-21T01:54:51.187Z,41.80
2023-04-21T01:57:18.970Z,44.70
2023-04-21T01:59:45.967Z,44.50
2023-04-21T02:02:13.015Z,48.30
2023-04-21T02:04:40.227Z,50.65
2023-04-21T02:07:07.505Z,48.83
2023-04-21T02:09:34.459Z,49.15
2023-04-21T02:12:02.055Z,51.35
2023-04-21T02:14:28.964Z,52.80
2023-04-21T02:16:56.399Z,56.83
2023-04-21T02:19:23.978Z,55.35
2023-04-21T02:21:51.024Z,53.92
2023-04-21T02:24:18.133Z,51.38
2023-04-21T02:26:44.925Z,52.90
2023-04-21T02:29:11.910Z,53.22
2023-04-21T02:31:53.844Z,52.30
2023-04-21T02:34:25.900Z,54.92
2023-04-21T02:36:52.741Z,52.85
2023-04-21T02:39:20.087Z,50.08
2023-04-21T02:41:47.043Z,50.88
2023-04-21T02:44:13.840Z,51.20
2023-04-21T02:46:43.473Z,50.92
2023-04-21T02:49:10.946Z,51.17
2023-04-21T02:51:37.783Z,50.70
2023-04-21T02:54:05.685Z,52.72
2023-04-21T02:56:34.653Z,55.30
2023-04-21T02:59:01.520Z,53.00
2023-04-21T03:01:28.328Z,50.65
2023-04-21T03:03:55.392Z,49.78
2023-04-21T03:06:22.589Z,51.40
2023-04-21T03:08:49.435Z,49.60
2023-04-21T03:11:16.270Z,57.95
2023-04-21T03:13:43.235Z,49.85
2023-04-21T03:16:10.186Z,51.78
2023-04-21T03:18:37.197Z,51.72
2023-04-21T03:21:04.119Z,50.92
2023-04-21T03:23:31.076Z,49.10
2023-04-21T03:25:57.862Z,55.22
2023-04-21T03:28:24.712Z,47.97
2023-04-21T03:30:51.670Z,52.13
2023-04-21T03:33:18.864Z,53.70
2023-04-21T03:35:45.704Z,52.03
2023-04-21T03:38:12.567Z,49.25
2023-04-21T03:40:39.501Z,51.92
2023-04-21T03:43:06.758Z,49.15
2023-04-21T03:45:35.850Z,50.72
2023-04-21T03:48:03.776Z,51.03
2023-04-21T03:50:31.090Z,51.83
2023-04-21T03:52:58.518Z,51.55
2023-04-21T03:55:25.567Z,52.72
2023-04-21T03:57:52.925Z,54.17
2023-04-21T04:00:21.181Z,51.28
2023-04-21T04:02:48.516Z,54.22
2023-04-21T04:05:15.921Z,51.85
2023-04-21T04:07:42.876Z,53.05
2023-04-21T04:10:10.138Z,52.13
2023-04-21T04:12:36.962Z,53.05
2023-04-21T04:15:03.996Z,54.08
2023-04-21T04:17:30.879Z,53.90
2023-04-21T04:19:57.725Z,56.90
2023-04-21T04:22:24.531Z,57.08
2023-04-21T04:24:51.671Z,58.47
2023-04-21T04:27:20.462Z,57.72
2023-04-21T04:29:49.396Z,57.35
2023-04-21T04:32:16.406Z,57.38
2023-04-21T04:34:43.690Z,58.90
2023-04-21T04:37:11.422Z,60.53
2023-04-21T04:39:38.450Z,58.13
2023-04-21T04:42:11.839Z,63.75
2023-04-21T04:44:38.793Z,56.90
2023-04-21T04:47:06.210Z,58.70
2023-04-21T04:49:33.336Z,58.20
2023-04-21T04:52:00.197Z,63.63
2023-04-21T04:54:29.058Z,60.25
2023-04-21T04:56:56.870Z,64.20
2023-04-21T04:59:23.721Z,65.80
2023-04-21T05:01:50.606Z,64.63
2023-04-21T05:04:17.895Z,64.97
2023-04-21T05:06:44.978Z,66.28
2023-04-21T05:09:12.554Z,68.80
2023-04-21T05:11:39.374Z,71.10
2023-04-21T05:14:06.297Z,69.75
2023-04-21T05:16:34.526Z,69.03
2023-04-21T05:19:02.868Z,69.85
2023-04-21T05:21:30.011Z,69.57
2023-04-21T05:23:59.739Z,69.72
2023-04-21T05:26:28.328Z,70.07
2023-04-21T05:28:56.783Z,69.45
2023-04-21T05:31:24.701Z,64.90
2023-04-21T05:33:51.905Z,66.57
2023-04-21T05:36:20.564Z,64.20
2023-04-21T05:38:47.639Z,62.47
2023-04-21T05:41:14.473Z,63.83
2023-04-21T05:43:41.343Z,64.85
2023-04-21T05:46:11.562Z,61.33
2023-04-21T05:48:38.661Z,61.55
2023-04-21T05:51:18.056Z,63.78
2023-04-21T05:53:45.903Z,66.50
2023-04-21T05:56:13.870Z,65.82
2023-04-21T05:58:41.842Z,62.72
2023-04-21T06:01:09.125Z,64.93
2023-04-21T06:03:36.504Z,66.10
2023-04-21T06:06:06.149Z,62.97
2023-04-21T06:08:33.507Z,64.35
2023-04-21T06:11:00.449Z,63.83
2023-04-21T06:13:27.887Z,68.82
2023-04-21T06:15:57.949Z,67.60
2023-04-21T06:18:27.543Z,71.63
2023-04-21T06:20:55.674Z,64.45
2023-04-21T06:23:22.858Z,61.17
2023-04-21T06:26:05.223Z,66.05
2023-04-21T06:28:33.534Z,63.30
2023-04-21T06:31:01.269Z,64.53
2023-04-21T06:33:29.933Z,60.92
2023-04-21T06:35:57.104Z,64.90
2023-04-21T06:38:24.022Z,61.65
2023-04-21T06:40:51.343Z,60.33
2023-04-21T06:43:18.194Z,59.95
2023-04-21T06:45:45.238Z,55.80
2023-04-21T06:48:12.314Z,58.25
2023-04-21T06:50:39.301Z,54.20
2023-04-21T06:53:07.468Z,55.00
2023-04-21T06:55:34.422Z,59.05
2023-04-21T06:58:01.346Z,53.38
2023-04-21T07:00:28.280Z,54.92
2023-04-21T07:02:55.250Z,51.22
2023-04-21T07:05:22.165Z,52.13
2023-04-21T07:07:49.149Z,53.05
2023-04-21T07:10:19.646Z,49.83
2023-04-21T07:12:46.700Z,53.47
2023-04-21T07:15:13.665Z,50.28
2023-04-21T07:17:40.519Z,50.88
2023-04-21T07:20:08.190Z,50.53
2023-04-21T07:22:36.346Z,52.03
2023-04-21T07:25:07.173Z,49.70
2023-04-21T07:27:37.000Z,49.80
2023-04-21T07:30:05.833Z,48.70
2023-04-21T07:32:33.773Z,45.53
2023-04-21T07:35:02.064Z,45.42
2023-04-21T07:37:29.016Z,47.20
2023-04-21T07:39:55.896Z,45.60
2023-04-21T07:42:22.944Z,44.58
2023-04-21T07:44:49.969Z,40.28
2023-04-21T07:47:17.020Z,42.95
2023-04-21T07:49:43.886Z,38.67
2023-04-21T07:52:10.971Z,41.30
2023-04-21T07:54:38.202Z,42.63
2023-04-21T07:57:05.243Z,40.80
2023-04-21T07:59:32.058Z,39.65
2023-04-21T08:01:59.007Z,35.80
2023-04-21T08:04:26.250Z,37.20
2023-04-21T08:06:53.641Z,33.22
2023-04-21T08:09:20.886Z,32.60
2023-04-21T08:11:47.894Z,34.20
2023-04-21T08:14:14.858Z,33.55
2023-04-21T08:16:42.566Z,35.47
2023-04-21T08:19:10.440Z,35.75
2023-04-21T08:21:37.479Z,32.10
2023-04-21T08:24:04.670Z,29.05
2023-04-21T08:26:33.792Z,32.38
2023-04-21T08:29:04.019Z,30.85
2023-04-21T08:31:31.652Z,29.67
2023-04-21T08:34:02.489Z,26.90
2023-04-21T08:36:30.841Z,27.45
2023-04-21T08:38:58.321Z,28.80
2023-04-21T08:41:26.040Z,31.52
2023-04-21T08:43:52.913Z,27.83
2023-04-21T08:46:21.052Z,27.08
2023-04-21T08:48:48.457Z,27.58
2023-04-21T08:51:23.305Z,31.52
2023-04-21T08:53:50.818Z,27.27
2023-04-21T08:56:17.810Z,29.73
2023-04-21T08:58:44.850Z,25.38
2023-04-21T09:01:12.370Z,24.38
2023-04-21T09:03:39.450Z,25.75
2023-04-21T09:06:09.408Z,26.42
2023-04-21T09:08:43.686Z,23.17
2023-04-21T09:11:15.032Z,21.25
2023-04-21T09:13:43.947Z,23.45
2023-04-21T09:16:22.275Z,23.20
2023-04-21T09:18:50.760Z,24.77
2023-04-21T09:21:19.212Z,27.90
2023-04-21T09:23:48.306Z,19.73
2023-04-21T09:26:16.601Z,20.85
2023-04-21T09:28:48.369Z,20.85
2023-04-21T09:31:25.115Z,22.35
2023-04-21T09:33:59.594Z,22.00
2023-04-21T09:36:29.905Z,27.80
2023-04-21T09:41:33.002Z,25.05
2023-04-21T09:44:05.105Z,25.08
2023-04-21T09:46:36.842Z,22.10
2023-04-21T09:49:04.831Z,22.20
2023-04-21T09:52:05.304Z,22.25
2023-04-21T09:56:56.515Z,21.77
2023-04-21T09:59:29.591Z,25.23
2023-04-21T10:01:59.557Z,26.00
2023-04-21T10:04:29.287Z,21.52
2023-04-21T10:06:56.995Z,21.02
2023-04-21T10:09:27.710Z,22.98
2023-04-21T10:11:55.818Z,21.85
2023-04-21T10:14:22.922Z,19.50
2023-04-21T10:17:07.069Z,19.30
2023-04-21T10:19:39.516Z,19.90
2023-04-21T10:22:08.733Z,21.85
2023-04-21T10:24:43.242Z,19.40
2023-04-21T10:27:11.773Z,17.05
2023-04-21T10:29:48.474Z,17.05
2023-04-21T10:32:42.603Z,18.13
2023-04-21T10:35:11.083Z,21.85
2023-04-21T10:37:38.060Z,19.80
2023-04-21T10:40:09.656Z,18.50
2023-04-21T10:42:37.320Z,19.20
2023-04-21T10:45:09.962Z,17.65
2023-04-21T10:47:42.788Z,17.20
2023-04-21T10:50:23.426Z,16.23
2023-04-21T10:52:59.492Z,14.40
2023-04-21T10:57:54.492Z,15.63
2023-04-21T11:00:23.600Z,15.23
2023-04-21T11:03:03.032Z,17.90
2023-04-21T11:05:40.569Z,18.17
2023-04-21T11:08:13.073Z,18.92
2023-04-21T11:10:48.925Z,20.20
2023-04-21T11:13:16.150Z,23.05
2023-04-21T11:15:55.372Z,25.83
2023-04-21T11:18:31.511Z,19.88
2023-04-21T11:21:18.005Z,22.13
2023-04-21T11:23:50.392Z,21.67
2023-04-21T11:26:17.979Z,23.15
2023-04-21T11:28:49.564Z,21.40
2023-04-21T11:31:16.630Z,21.85
2023-04-21T11:33:43.639Z,23.98
2023-04-21T11:36:10.514Z,20.42
2023-04-21T11:38:41.605Z,19.85
2023-04-21T11:41:11.116Z,24.92
2023-04-21T11:43:38.702Z,20.95
2023-04-21T11:46:19.106Z,21.48
2023-04-21T11:48:46.634Z,22.58
2023-04-21T11:51:20.042Z,19.90
2023-04-21T11:53:49.046Z,19.83
2023-04-21T11:56:21.798Z,21.85
2023-04-21T11:58:51.799Z,22.48
2023-04-21T12:01:19.719Z,20.95
2023-04-21T12:03:56.963Z,20.40
2023-04-21T12:06:25.208Z,18.30
2023-04-21T12:09:01.530Z,15.85
2023-04-21T12:11:31.994Z,19.55
2023-04-21T12:13:59.888Z,18.30
2023-04-21T12:16:28.841Z,18.55
2023-04-21T12:18:58.185Z,21.02
2023-04-21T12:21:31.667Z,19.35
2023-04-21T12:23:58.746Z,18.50
2023-04-21T12:26:25.661Z,18.42
2023-04-21T12:28:53.568Z,17.75
2023-04-21T12:31:20.491Z,16.65
2023-04-21T12:33:47.475Z,16.77
2023-04-21T12:36:14.371Z,13.95
2023-04-21T12:38:41.162Z,13.98
2023-04-21T12:41:08.072Z,14.05
2023-04-21T12:43:34.902Z,16.20
2023-04-21T12:46:02.093Z,14.95
2023-04-21T12:48:29.353Z,12.88
2023-04-21T12:50:56.162Z,14.25
2023-04-21T12:53:22.972Z,11.32
2023-04-21T12:56:03.392Z,12.18
2023-04-21T12:58:31.890Z,10.90
2023-04-21T13:00:58.866Z,12.73
2023-04-21T13:03:25.866Z,10.52
2023-04-21T13:05:52.918Z,10.82
2023-04-21T13:08:21.237Z,9.75
2023-04-21T13:10:48.017Z,10.07
2023-04-21T13:13:14.860Z,10.18
2023-04-21T13:15:41.691Z,10.40
2023-04-21T13:18:08.565Z,10.18
2023-04-21T13:20:35.410Z,10.48
2023-04-21T13:23:02.198Z,13.00
2023-04-21T13:25:29.073Z,9.57
2023-04-21T13:27:55.936Z,11.35
2023-04-21T13:30:22.765Z,8.48
2023-04-21T13:32:50.238Z,12.75
2023-04-21T13:35:17.184Z,7.82
2023-04-21T13:37:44.070Z,7.53
2023-04-21T13:40:11.845Z,7.05
2023-04-21T13:42:39.907Z,8.43
2023-04-21T13:45:07.360Z,8.98
2023-04-21T13:47:34.721Z,9.35
2023-04-21T13:50:01.978Z,8.82
2023-04-21T13:52:28.837Z,9.38
2023-04-21T13:54:55.721Z,7.90
2023-04-21T13:57:22.857Z,7.38
2023-04-21T13:59:50.555Z,8.23
2023-04-21T14:02:18.138Z,8.25
2023-04-21T14:04:45.476Z,7.25
2023-04-21T14:07:14.804Z,8.00
2023-04-21T14:09:41.799Z,9.77
2023-04-21T14:12:08.701Z,11.25
2023-04-21T14:14:38.797Z,8.35
2023-04-21T14:17:07.043Z,8.05
2023-04-21T14:19:34.990Z,8.60
2023-04-21T14:22:02.217Z,9.90
2023-04-21T14:24:30.287Z,8.50
2023-04-21T14:26:57.550Z,9.95
2023-04-21T14:29:24.539Z,9.48
2023-04-21T14:31:53.889Z,9.93
2023-04-21T14:34:20.841Z,9.70
2023-04-21T14:36:50.055Z,10.60
2023-04-21T14:39:17.113Z,9.25
2023-04-21T14:41:44.101Z,11.35
2023-04-21T14:44:11.061Z,10.25
2023-04-21T14:46:38.667Z,9.18
2023-04-21T14:49:06.241Z,10.27
2023-04-21T14:51:33.542Z,11.27
2023-04-21T14:54:00.428Z,9.68
2023-04-21T14:56:27.190Z,8.00
2023-04-21T14:58:54.155Z,8.13
2023-04-21T15:01:22.173Z,8.70
2023-04-21T15:03:53.113Z,9.60
2023-04-21T15:06:21.006Z,9.18
2023-04-21T15:08:47.979Z,11.02
2023-04-21T15:11:14.916Z,11.32
2023-04-21T15:13:42.209Z,9.80
2023-04-21T15:16:09.074Z,10.48
2023-04-21T15:18:35.914Z,10.35
2023-04-21T15:21:02.906Z,10.73
2023-04-21T15:23:29.896Z,10.93
2023-04-21T15:25:58.065Z,9.90
2023-04-21T15:28:24.866Z,10.35
2023-04-21T15:30:51.825Z,12.15
2023-04-21T15:33:18.783Z,12.15
2023-04-21T15:35:47.469Z,8.82
2023-04-21T15:38:14.510Z,10.07
2023-04-21T15:40:59.059Z,10.13
2023-04-21T15:43:26.887Z,9.18
2023-04-21T15:45:53.793Z,11.38
2023-04-21T15:48:22.181Z,12.43
2023-04-21T15:50:49.155Z,10.75
2023-04-21T15:53:17.893Z,12.13
2023-04-21T15:55:46.967Z,13.07
2023-04-21T15:58:13.872Z,12.15
2023-04-21T16:00:44.466Z,12.35
2023-04-21T16:03:11.536Z,13.40
2023-04-21T16:05:38.658Z,14.05
2023-04-21T16:08:05.607Z,12.85
2023-04-21T16:10:32.574Z,14.45
2023-04-21T16:12:59.587Z,15.27
2023-04-21T16:15:27.119Z,14.90
2023-04-21T16:17:54.205Z,12.55
2023-04-21T16:20:21.276Z,17.92
2023-04-21T16:22:51.655Z,14.25
2023-04-21T16:25:19.436Z,13.30
2023-04-21T16:27:46.412Z,14.15
2023-04-21T16:30:13.433Z,16.02
2023-04-21T16:32:40.396Z,13.68
2023-04-21T16:35:11.540Z,13.30
2023-04-21T16:37:42.763Z,12.45
2023-04-21T16:40:10.891Z,12.40
2023-04-21T16:42:38.188Z,12.43
2023-04-21T16:45:05.881Z,11.27
2023-04-21T16:47:40.321Z,11.85
2023-04-21T16:50:08.920Z,14.13
2023-04-21T16:52:35.916Z,15.73
2023-04-21T16:55:02.860Z,13.73
2023-04-21T16:57:31.199Z,17.80
2023-04-21T16:59:59.322Z,10.63
2023-04-21T17:02:26.290Z,8.95
2023-04-21T17:04:53.230Z,9.48
2023-04-21T17:07:20.137Z,7.88
2023-04-21T17:09:46.936Z,7.25
2023-04-21T17:12:13.859Z,7.78
2023-04-21T17:14:41.010Z,7.80
2023-04-21T17:17:08.235Z,5.55
2023-04-21T17:19:35.448Z,5.68
2023-04-21T17:22:02.514Z,8.30
2023-04-21T17:24:35.438Z,11.18
2023-04-21T17:27:08.465Z,7.40
2023-04-21T17:29:35.388Z,5.28
2023-04-21T17:32:02.279Z,4.85
2023-04-21T17:34:31.440Z,9.27
2023-04-21T17:36:58.398Z,7.32
2023-04-21T17:39:26.336Z,3.85
2023-04-21T17:41:53.199Z,4.50
2023-04-21T17:44:20.028Z,5.60
2023-04-21T17:46:47.244Z,5.70
2023-04-21T17:49:14.182Z,3.70
2023-04-21T17:51:40.957Z,4.82
2023-04-21T17:54:08.317Z,5.82
2023-04-21T17:56:35.537Z,5.03
2023-04-21T17:59:02.391Z,6.57
2023-04-21T18:01:29.202Z,8.40
2023-04-21T18:04:00.611Z,10.55
2023-04-21T18:06:28.536Z,17.30
2023-04-21T18:08:55.903Z,12.38
2023-04-21T18:11:22.857Z,14.07
2023-04-21T18:13:49.719Z,18.05
2023-04-21T18:16:16.743Z,14.82
2023-04-21T18:18:43.831Z,14.93
2023-04-21T18:21:11.578Z,15.15
2023-04-21T18:23:38.624Z,13.93
2023-04-21T18:26:05.763Z,14.93
2023-04-21T18:28:32.603Z,15.93
2023-04-21T18:31:00.818Z,14.80
2023-04-21T18:33:28.036Z,14.98
2023-04-21T18:35:54.979Z,15.05
2023-04-21T18:38:22.032Z,15.88
2023-04-21T18:40:48.869Z,16.10
2023-04-21T18:43:15.920Z,16.25
2023-04-21T18:45:42.840Z,14.10
2023-04-21T18:48:09.775Z,12.75
2023-04-21T18:50:40.160Z,14.75
2023-04-21T18:53:08.099Z,14.57
2023-04-21T18:55:36.473Z,13.55
2023-04-21T18:58:03.904Z,14.85
2023-04-21T19:00:32.290Z,14.00
2023-04-21T19:03:04.089Z,14.95
2023-04-21T19:05:31.937Z,13.75
2023-04-21T19:07:58.936Z,14.18
2023-04-21T19:10:26.744Z,15.48
2023-04-21T19:12:53.966Z,16.15
2023-04-21T19:15:22.169Z,15.75
2023-04-21T19:17:49.192Z,17.45
2023-04-21T19:20:16.229Z,14.85
2023-04-21T19:22:43.549Z,16.15
2023-04-21T19:25:10.977Z,14.48
2023-04-21T19:27:38.111Z,17.25
2023-04-21T19:30:05.912Z,15.90
2023-04-21T19:32:32.906Z,16.17
2023-04-21T19:35:00.023Z,15.85
2023-04-21T19:37:28.077Z,14.85
2023-04-21T19:39:55.067Z,17.15
2023-04-21T19:42:21.923Z,18.70
2023-04-21T19:44:48.712Z,18.30
2023-04-21T19:47:15.627Z,19.85
2023-04-21T19:49:42.650Z,23.15
2023-04-21T19:52:09.502Z,19.50
2023-04-21T19:54:36.860Z,18.40
2023-04-21T19:57:04.019Z,16.50
2023-04-21T19:59:31.077Z,18.25
2023-04-21T20:01:58.646Z,18.27
2023-04-21T20:04:25.880Z,19.17
2023-04-21T20:06:52.952Z,18.80
2023-04-21T20:09:19.957Z,16.73
2023-04-21T20:11:46.789Z,15.95
2023-04-21T20:14:14.158Z,16.45
2023-04-21T20:16:41.140Z,20.45
2023-04-21T20:19:09.064Z,20.48
2023-04-21T20:21:36.012Z,19.35
2023-04-21T20:24:03.188Z,22.40
2023-04-21T20:26:30.050Z,21.77
2023-04-21T20:28:56.877Z,21.80
2023-04-21T20:31:25.506Z,19.10
2023-04-21T20:33:52.557Z,23.45
2023-04-21T20:36:19.430Z,23.30
2023-04-21T20:38:46.599Z,24.17
2023-04-21T20:41:13.652Z,27.02
2023-04-21T20:43:40.624Z,28.90
2023-04-21T20:46:08.925Z,29.67
2023-04-21T20:48:35.967Z,29.67
2023-04-21T20:51:03.469Z,31.10
2023-04-21T20:53:30.315Z,33.72
2023-04-21T20:55:57.529Z,32.42
2023-04-21T20:58:24.889Z,32.92
2023-04-21T21:00:51.883Z,38.00
2023-04-21T21:03:20.291Z,30.65
2023-04-21T21:05:47.613Z,33.88
2023-04-21T21:08:15.108Z,33.08
2023-04-21T21:10:42.210Z,32.67
2023-04-21T21:13:09.101Z,35.13
2023-04-21T21:15:35.954Z,35.58
2023-04-21T21:18:03.026Z,39.47
2023-04-21T21:20:29.963Z,34.08
2023-04-21T21:22:56.815Z,33.75
2023-04-21T21:25:23.838Z,36.17
2023-04-21T21:27:50.669Z,39.55
2023-04-21T21:30:17.464Z,38.70
2023-04-21T21:32:44.351Z,39.67
2023-04-21T21:35:11.988Z,39.03
2023-04-21T21:37:39.254Z,36.90
2023-04-21T21:40:07.238Z,40.25
2023-04-21T21:42:34.193Z,41.22
2023-04-21T21:45:01.341Z,37.63
2023-04-21T21:47:28.361Z,41.47
2023-04-21T21:49:57.864Z,42.00
2023-04-21T21:52:25.176Z,40.72
2023-04-21T21:54:52.655Z,39.15
2023-04-21T21:57:19.627Z,43.85
2023-04-21T21:59:47.109Z,42.50
2023-04-21T22:02:14.485Z,45.42
2023-04-21T22:04:44.546Z,45.90
2023-04-21T22:07:11.369Z,46.67
2023-04-21T22:09:39.863Z,46.67
2023-04-21T22:12:07.333Z,46.92
2023-04-21T22:14:34.452Z,49.05
2023-04-21T22:17:02.920Z,45.55
2023-04-21T22:19:31.015Z,43.20
2023-04-21T22:21:58.017Z,45.60
2023-04-21T22:24:25.141Z,44.90
2023-04-21T22:26:52.289Z,48.08
2023-04-21T22:29:19.315Z,48.13
2023-04-21T22:31:46.205Z,48.65
2023-04-21T22:34:15.184Z,51.05
2023-04-21T22:36:42.398Z,53.92
2023-04-21T22:39:09.304Z,49.30
2023-04-21T22:41:36.326Z,55.67
2023-04-21T22:44:03.306Z,58.28
2023-04-21T22:46:33.716Z,52.97
2023-04-21T22:49:05.238Z,53.25
2023-04-21T22:51:32.629Z,53.35
2023-04-21T22:54:00.330Z,55.80
2023-04-21T22:56:27.814Z,59.47
2023-04-21T22:58:55.027Z,59.22
2023-04-21T23:01:21.991Z,55.85
2023-04-21T23:03:48.969Z,56.65
2023-04-21T23:06:15.902Z,56.28
2023-04-21T23:08:42.710Z,53.55
2023-04-21T23:11:09.547Z,58.85
2023-04-21T23:13:36.392Z,54.05
2023-04-21T23:16:03.354Z,60.70
2023-04-21T23:18:30.481Z,60.78
2023-04-21T23:20:58.782Z,58.83
2023-04-21T23:23:25.795Z,63.58
2023-04-21T23:25:52.633Z,56.95
2023-04-21T23:28:20.446Z,63.78
2023-04-21T23:30:47.373Z,60.97
2023-04-21T23:33:14.344Z,56.60
2023-04-21T23:35:41.257Z,62.75
2023-04-21T23:38:08.117Z,63.08
2023-04-21T23:40:34.991Z,62.53
2023-04-21T23:43:01.800Z,60.60
2023-04-21T23:45:28.714Z,59.60
2023-04-21T23:47:55.763Z,60.42
2023-04-21T23:50:22.697Z,60.58
2023-04-21T23:52:49.685Z,63.97
2023-04-21T23:55:16.560Z,67.07
2023-04-21T23:57:45.161Z,61.83
